createdAt,value
2023-03-21T00:02:08.710Z,7.47
2023-03-21T00:05:15.912Z,7.43
2023-03-21T00:08:21.417Z,7.88
2023-03-21T00:11:24.596Z,7.25
2023-03-21T00:14:30.936Z,8.68
2023-03-21T00:17:36.139Z,8.85
2023-03-21T00:20:39.300Z,8.07
2023-03-21T00:23:44.565Z,8.25
2023-03-21T00:26:47.700Z,8.55
2023-03-21T00:29:50.828Z,7.63
2023-03-21T00:32:56.718Z,8.02
2023-03-21T00:36:05.226Z,8.43
2023-03-21T00:39:11.745Z,7.63
2023-03-21T00:42:15.379Z,8.20
2023-03-21T00:45:19.297Z,6.60
2023-03-21T00:48:22.699Z,6.82
2023-03-21T00:51:26.957Z,6.75
2023-03-21T00:54:31.737Z,6.45
2023-03-21T00:57:38.993Z,6.28
2023-03-21T01:00:43.782Z,6.80
2023-03-21T01:03:50.974Z,6.22
2023-03-21T01:06:55.106Z,5.03
2023-03-21T01:09:59.682Z,5.80
2023-03-21T01:13:03.278Z,5.72
2023-03-21T01:16:09.456Z,5.68
2023-03-21T01:19:25.003Z,6.03
2023-03-21T01:22:29.679Z,5.70
2023-03-21T01:25:34.260Z,5.07
2023-03-21T01:28:38.768Z,5.80
2023-03-21T01:31:41.944Z,6.20
2023-03-21T01:34:47.224Z,5.75
2023-03-21T01:37:51.568Z,6.25
2023-03-21T01:40:56.840Z,5.80
2023-03-21T01:44:04.464Z,6.10
2023-03-21T01:47:13.074Z,6.03
2023-03-21T01:50:23.076Z,5.55
2023-03-21T01:53:52.267Z,5.68
2023-03-21T01:56:59.662Z,6.68
2023-03-21T02:00:12.555Z,7.00
2023-03-21T02:03:50.497Z,7.28
2023-03-21T02:07:17.789Z,7.95
2023-03-21T02:10:29.088Z,7.72
2023-03-21T02:13:36.290Z,7.80
2023-03-21T02:16:51.963Z,8.35
2023-03-21T02:20:22.029Z,8.30
2023-03-21T02:24:04.157Z,7.75
2023-03-21T02:27:12.860Z,8.45
2023-03-21T02:30:50.919Z,8.18
2023-03-21T02:34:25.872Z,8.35
2023-03-21T02:37:38.392Z,8.55
2023-03-21T02:40:47.066Z,7.93
2023-03-21T02:43:59.369Z,7.60
2023-03-21T02:47:07.576Z,7.88
2023-03-21T02:50:16.847Z,7.72
2023-03-21T02:53:25.298Z,6.15
2023-03-21T02:56:29.242Z,7.93
2023-03-21T02:59:39.373Z,6.75
2023-03-21T03:03:02.718Z,7.63
2023-03-21T03:06:19.843Z,7.63
2023-03-21T03:09:38.413Z,7.85
2023-03-21T03:12:50.576Z,7.43
2023-03-21T03:16:06.172Z,7.25
2023-03-21T03:19:12.703Z,7.38
2023-03-21T03:22:24.273Z,8.25
2023-03-21T03:25:43.053Z,7.25
2023-03-21T03:28:53.319Z,6.68
2023-03-21T03:32:01.574Z,7.07
2023-03-21T03:35:09.600Z,7.15
2023-03-21T03:38:14.510Z,7.13
2023-03-21T03:41:23.588Z,6.78
2023-03-21T03:44:32.159Z,7.07
2023-03-21T03:47:55.918Z,7.15
2023-03-21T03:51:08.067Z,7.05
2023-03-21T03:54:37.451Z,7.50
2023-03-21T03:57:46.077Z,7.20
2023-03-21T04:00:49.869Z,8.70
2023-03-21T04:04:06.793Z,9.00
2023-03-21T04:07:16.342Z,8.80
2023-03-21T04:10:20.446Z,9.13
2023-03-21T04:13:25.824Z,9.60
2023-03-21T04:16:41.501Z,10.03
2023-03-21T04:19:45.474Z,9.88
2023-03-21T04:22:49.631Z,9.40
2023-03-21T04:25:56.781Z,10.40
2023-03-21T04:29:08.278Z,10.85
2023-03-21T04:34:14.419Z,11.70
2023-03-21T04:37:24.422Z,11.50
2023-03-21T04:40:29.366Z,11.98
2023-03-21T04:43:32.613Z,11.85
2023-03-21T04:46:36.289Z,12.10
2023-03-21T04:49:40.934Z,12.23
2023-03-21T04:52:47.245Z,11.35
2023-03-21T04:55:54.162Z,11.75
2023-03-21T05:02:01.604Z,9.55
2023-03-21T05:05:06.857Z,9.93
2023-03-21T05:08:10.096Z,10.05
2023-03-21T05:11:14.806Z,10.50
2023-03-21T05:14:20.093Z,10.65
2023-03-21T05:17:24.919Z,10.82
2023-03-21T05:20:29.496Z,10.82
2023-03-21T05:23:38.163Z,9.85
2023-03-21T05:26:42.262Z,10.65
2023-03-21T05:29:51.966Z,11.43
2023-03-21T05:32:55.140Z,11.07
2023-03-21T05:36:00.046Z,11.43
2023-03-21T05:39:07.661Z,12.10
2023-03-21T05:42:16.212Z,12.00
2023-03-21T05:45:20.611Z,11.57
2023-03-21T05:48:26.150Z,11.18
2023-03-21T05:51:49.528Z,11.23
2023-03-21T05:54:53.033Z,11.20
2023-03-21T05:57:59.452Z,10.82
2023-03-21T06:01:06.210Z,11.55
2023-03-21T06:04:11.676Z,10.30
2023-03-21T06:07:19.610Z,10.32
2023-03-21T06:10:23.137Z,10.85
2023-03-21T06:13:26.611Z,10.68
2023-03-21T06:16:30.048Z,10.88
2023-03-21T06:19:33.473Z,10.05
2023-03-21T06:22:43.408Z,10.23
2023-03-21T06:25:49.162Z,9.45
2023-03-21T06:28:53.485Z,9.07
2023-03-21T06:31:57.250Z,8.15
2023-03-21T06:35:00.538Z,9.00
2023-03-21T06:38:05.996Z,8.25
2023-03-21T06:41:11.437Z,8.45
2023-03-21T06:44:19.658Z,7.13
2023-03-21T06:47:31.028Z,8.10
2023-03-21T06:50:35.529Z,7.00
2023-03-21T06:53:41.430Z,7.38
2023-03-21T06:57:11.388Z,7.20
2023-03-21T07:00:16.783Z,7.63
2023-03-21T07:03:23.699Z,8.05
2023-03-21T07:06:28.218Z,7.05
2023-03-21T07:09:33.290Z,7.32
2023-03-21T07:12:43.813Z,7.90
2023-03-21T07:15:54.332Z,6.80
2023-03-21T07:18:57.551Z,5.93
2023-03-21T07:22:01.390Z,6.03
2023-03-21T07:25:08.635Z,5.70
2023-03-21T07:28:17.467Z,5.82
2023-03-21T07:31:21.212Z,5.35
2023-03-21T07:34:24.958Z,5.05
2023-03-21T07:37:28.202Z,4.85
2023-03-21T07:40:34.472Z,4.97
2023-03-21T07:43:39.189Z,4.38
2023-03-21T07:46:46.205Z,5.05
2023-03-21T07:49:49.323Z,5.07
2023-03-21T07:52:52.525Z,5.00
2023-03-21T07:55:57.098Z,4.05
2023-03-21T07:59:00.373Z,4.30
2023-03-21T08:02:03.802Z,4.88
2023-03-21T08:05:07.314Z,5.93
2023-03-21T08:08:10.587Z,4.47
2023-03-21T08:11:15.262Z,4.00
2023-03-21T08:14:18.587Z,4.65
2023-03-21T08:17:21.702Z,4.72
2023-03-21T08:20:25.089Z,3.90
2023-03-21T08:23:28.236Z,4.45
2023-03-21T08:26:32.732Z,5.00
2023-03-21T08:29:40.343Z,4.35
2023-03-21T08:32:43.858Z,3.75
2023-03-21T08:35:47.447Z,4.32
2023-03-21T08:38:54.677Z,4.35
2023-03-21T08:41:59.152Z,4.50
2023-03-21T08:45:02.444Z,4.13
2023-03-21T08:48:06.311Z,3.67
2023-03-21T08:51:10.016Z,3.33
2023-03-21T08:54:20.573Z,3.58
2023-03-21T08:57:25.458Z,3.75
2023-03-21T09:00:29.611Z,3.67
2023-03-21T09:03:33.101Z,3.83
2023-03-21T09:06:36.525Z,4.32
2023-03-21T09:09:39.847Z,3.80
2023-03-21T09:12:46.362Z,3.53
2023-03-21T09:15:49.725Z,3.53
2023-03-21T09:18:55.689Z,3.30
2023-03-21T09:21:59.633Z,3.30
2023-03-21T09:25:04.186Z,3.60
2023-03-21T09:28:09.707Z,3.83
2023-03-21T09:31:14.594Z,3.85
2023-03-21T09:34:17.811Z,3.20
2023-03-21T09:37:21.289Z,3.50
2023-03-21T09:40:40.213Z,3.53
2023-03-21T09:43:58.452Z,3.50
2023-03-21T09:47:06.865Z,3.53
2023-03-21T09:50:17.337Z,4.13
2023-03-21T09:53:27.061Z,3.03
2023-03-21T09:56:31.277Z,3.40
2023-03-21T09:59:41.182Z,3.00
2023-03-21T10:02:47.070Z,2.90
2023-03-21T10:05:52.531Z,3.45
2023-03-21T10:08:59.997Z,3.70
2023-03-21T10:12:07.538Z,3.03
2023-03-21T10:15:17.978Z,3.28
2023-03-21T10:18:27.316Z,3.45
2023-03-21T10:21:58.495Z,3.72
2023-03-21T10:24:54.960Z,3.65
2023-03-21T10:27:58.818Z,3.83
2023-03-21T10:34:19.782Z,3.95
2023-03-21T10:37:24.607Z,3.70
2023-03-21T10:40:27.944Z,3.70
2023-03-21T10:43:37.385Z,3.83
2023-03-21T10:46:40.712Z,3.42
2023-03-21T10:53:20.026Z,3.72
2023-03-21T10:56:27.603Z,3.35
2023-03-21T10:59:38.082Z,3.70
2023-03-21T11:02:41.797Z,3.63
2023-03-21T11:05:46.851Z,3.78
2023-03-21T11:08:52.832Z,4.25
2023-03-21T11:12:03.765Z,4.03
2023-03-21T11:15:27.298Z,4.00
2023-03-21T11:18:33.134Z,3.63
2023-03-21T11:21:39.098Z,4.05
2023-03-21T11:24:48.730Z,3.40
2023-03-21T11:27:55.400Z,3.60
2023-03-21T11:31:01.245Z,3.40
2023-03-21T11:34:08.457Z,4.22
2023-03-21T11:37:20.700Z,3.55
2023-03-21T11:40:26.254Z,3.13
2023-03-21T11:43:32.793Z,3.40
2023-03-21T11:46:41.522Z,3.13
2023-03-21T11:49:44.701Z,3.38
2023-03-21T11:52:59.696Z,3.72
2023-03-21T11:56:21.239Z,3.47
2023-03-21T11:59:35.573Z,3.63
2023-03-21T12:03:02.690Z,3.92
2023-03-21T12:06:18.314Z,3.70
2023-03-21T12:09:38.445Z,3.53
2023-03-21T12:12:55.604Z,2.90
2023-03-21T12:16:06.705Z,3.58
2023-03-21T12:19:20.678Z,3.42
2023-03-21T12:22:34.152Z,3.63
2023-03-21T12:25:44.307Z,3.08
2023-03-21T12:29:01.100Z,3.05
2023-03-21T12:32:27.134Z,2.60
2023-03-21T12:35:45.984Z,2.42
2023-03-21T12:39:00.618Z,2.80
2023-03-21T12:42:18.384Z,3.35
2023-03-21T12:45:26.069Z,3.22
2023-03-21T12:48:39.375Z,3.10
2023-03-21T12:51:44.799Z,3.00
2023-03-21T12:54:52.891Z,3.05
2023-03-21T12:58:04.769Z,3.20
2023-03-21T13:01:10.849Z,3.40
2023-03-21T13:04:32.622Z,2.95
2023-03-21T13:07:40.893Z,2.90
2023-03-21T13:10:46.090Z,2.28
2023-03-21T13:13:59.315Z,2.80
2023-03-21T13:17:07.700Z,2.50
2023-03-21T13:20:21.354Z,2.63
2023-03-21T13:23:25.842Z,2.30
2023-03-21T13:26:39.183Z,2.20
2023-03-21T13:29:49.679Z,2.28
2023-03-21T13:32:56.995Z,2.53
2023-03-21T13:36:05.521Z,2.22
2023-03-21T13:39:19.581Z,2.13
2023-03-21T14:20:56.527Z,2.47
2023-03-21T14:24:20.613Z,2.17
2023-03-21T14:27:24.230Z,2.17
2023-03-21T14:30:30.179Z,1.98
2023-03-21T14:33:36.749Z,1.70
2023-03-21T14:36:45.752Z,1.77
2023-03-21T14:40:00.419Z,1.95
2023-03-21T14:43:06.298Z,2.08
2023-03-21T14:46:14.313Z,2.03
2023-03-21T14:49:28.582Z,2.00
2023-03-21T14:52:35.613Z,2.17
2023-03-21T14:55:43.356Z,2.00
2023-03-21T15:01:51.870Z,1.90
2023-03-21T15:04:58.339Z,1.98
2023-03-21T15:08:07.971Z,1.88
2023-03-21T15:11:14.305Z,1.63
2023-03-21T15:14:19.377Z,1.80
2023-03-21T15:17:23.755Z,1.80
2023-03-21T15:20:32.815Z,2.00
2023-03-21T15:23:41.204Z,1.50
2023-03-21T15:26:47.147Z,1.65
2023-03-21T15:29:54.026Z,1.77
2023-03-21T15:32:58.154Z,1.50
2023-03-21T15:36:01.693Z,2.00
2023-03-21T15:39:08.842Z,2.00
2023-03-21T15:42:25.923Z,2.27
2023-03-21T15:45:29.994Z,1.92
2023-03-21T15:48:35.860Z,2.55
2023-03-21T15:51:39.145Z,3.72
2023-03-21T15:54:47.765Z,1.95
2023-03-21T15:57:51.060Z,1.88
2023-03-21T16:00:56.123Z,2.60
2023-03-21T16:04:06.997Z,2.30
2023-03-21T16:07:17.233Z,2.33
2023-03-21T16:10:29.946Z,2.35
2023-03-21T16:13:33.037Z,2.35
2023-03-21T16:16:36.996Z,2.13
2023-03-21T16:19:41.822Z,2.00
2023-03-21T16:22:44.983Z,1.85
2023-03-21T16:25:55.988Z,2.03
2023-03-21T16:29:00.504Z,2.20
2023-03-21T16:34:14.256Z,2.30
2023-03-21T16:37:18.677Z,2.30
2023-03-21T16:40:27.570Z,2.05
2023-03-21T16:43:30.803Z,3.15
2023-03-21T16:46:33.953Z,2.05
2023-03-21T16:49:38.403Z,1.70
2023-03-21T16:52:41.639Z,1.50
2023-03-21T16:55:44.889Z,1.80
2023-03-21T16:58:48.255Z,1.90
2023-03-21T17:01:51.662Z,1.60
2023-03-21T17:04:56.564Z,1.80
2023-03-21T17:08:02.288Z,1.70
2023-03-21T17:11:06.425Z,1.92
2023-03-21T17:14:10.485Z,2.00
2023-03-21T17:17:19.140Z,2.28
2023-03-21T17:20:25.719Z,2.60
2023-03-21T17:23:28.929Z,2.25
2023-03-21T17:26:32.348Z,2.28
2023-03-21T17:29:35.697Z,2.20
2023-03-21T17:32:38.940Z,2.40
2023-03-21T17:35:43.698Z,2.70
2023-03-21T17:38:47.872Z,3.00
2023-03-21T17:41:51.951Z,2.78
2023-03-21T17:44:55.070Z,3.50
2023-03-21T17:47:58.334Z,3.58
2023-03-21T17:51:03.025Z,3.97
2023-03-21T17:54:06.965Z,3.88
2023-03-21T17:57:11.673Z,4.35
2023-03-21T18:00:20.904Z,4.32
2023-03-21T18:03:24.209Z,4.57
2023-03-21T18:06:28.816Z,5.10
2023-03-21T18:09:32.001Z,4.85
2023-03-21T18:12:35.203Z,5.40
2023-03-21T18:15:44.042Z,4.10
2023-03-21T18:18:48.336Z,6.10
2023-03-21T18:21:52.846Z,7.45
2023-03-21T18:24:57.670Z,7.10
2023-03-21T18:28:10.560Z,6.50
2023-03-21T18:31:19.826Z,5.40
2023-03-21T18:34:23.467Z,5.63
2023-03-21T18:37:30.894Z,4.78
2023-03-21T18:40:34.117Z,5.10
2023-03-21T18:44:05.313Z,5.50
2023-03-21T18:47:00.974Z,5.03
2023-03-21T18:50:14.533Z,5.38
2023-03-21T18:53:22.354Z,5.10
2023-03-21T18:57:19.657Z,4.90
2023-03-21T18:59:49.065Z,5.35
2023-03-21T19:03:02.322Z,4.72
2023-03-21T19:06:13.507Z,5.05
2023-03-21T19:09:18.846Z,4.45
2023-03-21T19:12:22.188Z,4.50
2023-03-21T19:15:25.424Z,4.95
2023-03-21T19:18:57.729Z,5.72
2023-03-21T19:21:52.188Z,6.20
2023-03-21T19:24:56.644Z,6.75
2023-03-21T19:28:00.019Z,5.57
2023-03-21T19:31:06.750Z,5.50
2023-03-21T19:34:09.905Z,5.43
2023-03-21T19:37:13.087Z,5.53
2023-03-21T19:40:19.761Z,5.53
2023-03-21T19:43:32.642Z,5.72
2023-03-21T19:46:36.421Z,5.93
2023-03-21T19:50:19.618Z,6.45
2023-03-21T19:53:04.123Z,6.13
2023-03-21T19:56:21.113Z,9.82
2023-03-21T19:59:26.158Z,7.95
2023-03-21T20:02:36.508Z,7.55
2023-03-21T20:05:40.246Z,8.38
2023-03-21T20:09:13.626Z,8.05
2023-03-21T20:12:08.485Z,14.15
2023-03-21T20:15:18.321Z,11.95
2023-03-21T20:18:24.587Z,10.32
2023-03-21T20:21:34.869Z,9.35
2023-03-21T20:24:42.937Z,12.70
2023-03-21T20:27:47.925Z,11.82
2023-03-21T20:30:54.135Z,11.43
2023-03-21T20:33:57.446Z,8.55
2023-03-21T20:37:01.360Z,7.55
2023-03-21T20:40:08.299Z,7.90
2023-03-21T20:43:54.310Z,6.50
2023-03-21T20:46:37.876Z,7.68
2023-03-21T20:49:41.247Z,8.70
2023-03-21T20:53:06.826Z,9.57
2023-03-21T20:56:08.461Z,9.18
2023-03-21T20:59:20.964Z,9.18
2023-03-21T21:02:28.987Z,8.85
2023-03-21T21:05:34.873Z,7.68
2023-03-21T21:08:38.607Z,8.07
2023-03-21T21:12:06.545Z,8.70
2023-03-21T21:15:08.297Z,7.80
2023-03-21T21:18:12.199Z,7.45
2023-03-21T21:21:17.133Z,8.30
2023-03-21T21:24:20.396Z,7.82
2023-03-21T21:27:23.669Z,8.38
2023-03-21T21:30:29.357Z,10.18
2023-03-21T21:33:34.290Z,8.80
2023-03-21T21:36:37.678Z,10.60
2023-03-21T21:39:42.122Z,10.68
2023-03-21T21:42:45.447Z,9.02
2023-03-21T21:45:50.704Z,8.77
2023-03-21T21:48:53.829Z,8.27
2023-03-21T21:51:59.716Z,8.15
2023-03-21T21:55:04.037Z,8.27
2023-03-21T21:58:08.444Z,9.38
2023-03-21T22:01:13.412Z,9.77
2023-03-21T22:04:17.969Z,8.73
2023-03-21T22:07:22.044Z,9.00
2023-03-21T22:10:27.629Z,8.82
2023-03-21T22:13:31.246Z,8.50
2023-03-21T22:16:35.882Z,9.50
2023-03-21T22:19:40.413Z,9.43
2023-03-21T22:22:43.774Z,10.30
2023-03-21T22:25:50.844Z,10.60
2023-03-21T22:28:53.969Z,10.35
2023-03-21T22:34:13.932Z,11.07
2023-03-21T22:37:17.049Z,13.23
2023-03-21T22:40:20.450Z,14.60
2023-03-21T22:43:23.959Z,13.77
2023-03-21T22:46:27.555Z,12.85
2023-03-21T22:49:32.837Z,12.43
2023-03-21T22:52:36.068Z,11.90
2023-03-21T22:55:39.546Z,11.13
2023-03-21T22:58:42.755Z,11.13
2023-03-21T23:01:46.138Z,10.60
2023-03-21T23:04:50.886Z,10.93
2023-03-21T23:07:54.345Z,10.93
2023-03-21T23:10:57.609Z,10.18
2023-03-21T23:14:07.789Z,7.72
2023-03-21T23:17:12.428Z,11.40
2023-03-21T23:20:16.975Z,10.23
2023-03-21T23:23:20.113Z,10.65
2023-03-21T23:26:24.488Z,9.77
2023-03-21T23:29:27.779Z,10.27
2023-03-21T23:32:32.464Z,10.25
2023-03-21T23:35:38.296Z,10.50
2023-03-21T23:38:42.489Z,11.05
2023-03-21T23:41:46.093Z,10.60
2023-03-21T23:44:49.185Z,10.13
2023-03-21T23:47:52.552Z,10.45
2023-03-21T23:50:57.685Z,10.77
2023-03-21T23:54:00.961Z,8.80
2023-03-21T23:57:04.493Z,9.50
